Unalaska, AK (99685)

2:45 AM AKDT on March 29, 2017 (GMT -0800)
MDUTA2 | | Change Station

Elev 13 ft 53.90 °N, 166.51 °W | Updated 56 minutes ago

Scattered Clouds
Scattered Clouds
29.0 °F
Feels Like 29 °F
N
2.0
Wind Variable Wind from SSW
Gusts 3.0 mph

Today
High -- | Low -- °F
--% Chance of Precip.
Yesterday
High -- | Low -- °F
Precip. -- in
Pressure 29.81 in
Visibility 10.0 miles
Clouds Scattered Clouds 2600 ft
Windchill 29 °F
Dew Point 20 °F
Humidity 69%
Rainfall in
Snow Depth Not available.
8:45 AM 9:37 PM
New Moon, 2% visible
METAR PADU 290956Z AUTO 20004KT 10SM SCT026 M02/M06 A2981 RMK AO2 SLP095 T10171056 FZRANO
Pressure 29.81 in
Visibility 10.0 miles
Clouds Scattered Clouds 2600 ft
Windchill 29 °F
Dew Point 20 °F
Humidity 69%
Rainfall in
Snow Depth Not available.
8:45 AM 9:37 PM
New Moon, 2% visible
METAR PADU 290956Z AUTO 20004KT 10SM SCT026 M02/M06 A2981 RMK AO2 SLP095 T10171056 FZRANO

Get Severe Weather Alerts

Thanks for signing up!

Be on the lookout for a verification email in your inbox.

You'll start receiving the daily forecast at 8 AM.

×

10-Day Weather Forecast

Almanac

Astronomy

Mar. 29, 2017 Rise Set
Actual Time
Civil Twilight
Nautical Twilight
Astronomical Twilight
Moon
Length of Visible Light
Length of Day
Tomorrow will be .
, % of the Moon is Illuminated

Today's Extremes

State Highs State Lows

Community

WunderPhotos

Upload Photos

1,962,540 photos uploaded!

WunderBlog® & News

Nearby

Air Quality

  Air Quality AQ Index Pollutant
Not available.

Snow Depth

Station Depth Elevation

Earthquake Activity

City Distance Mag. Time & Date
Minimum magnitude displayed is 2.5.

Earthquake Activity

City Distance Mag. Time & Date
Minimum magnitude displayed is 2.5.

Coastal Water Temperatures

Place Temperature

Stations

Nearby Weather Stations

Station Location Temp. Windchill Dew Point Humidity Wind Precip. Elev Updated Type
                   

Watches & Warnings

There are currently no watches in effect.